Time;durP1;ratioP1;P1;durP2;ratioP2;P2;SDS_P1;SDS_P2;PMS_P1;PMS_P2;Temp;Humidity;BMP_temperature;BMP_pressure;BME280_temperature;BME280_humidity;BME280_pressure;Samples;Min_cycle;Max_cycle;Signal;HPM_P1;HPM_P2
2022/09/19 00:01:43;;;;;;;1.50;0.83;;;11.00;1.00;;;;;;4992417;28;20414;-53
2022/09/19 00:04:14;;;;;;;3.10;0.90;;;11.00;1.00;;;;;;4987886;28;20432;-55
2022/09/19 00:06:42;;;;;;;1.73;1.10;;;11.20;1.00;;;;;;4988663;28;20441;-53
2022/09/19 00:09:11;;;;;;;1.10;0.80;;;11.30;1.00;;;;;;4991297;28;20427;-52
2022/09/19 00:11:39;;;;;;;0.80;0.70;;;11.30;1.00;;;;;;4988541;28;20431;-54
2022/09/19 00:14:06;;;;;;;1.00;0.90;;;11.30;1.00;;;;;;4994521;28;20463;-55
2022/09/19 00:16:34;;;;;;;1.77;0.70;;;11.20;1.00;;;;;;4982894;28;20444;-55
2022/09/19 00:19:01;;;;;;;2.37;0.87;;;11.20;1.00;;;;;;4989526;28;20452;-54
2022/09/19 00:21:33;;;;;;;2.10;0.63;;;11.30;1.00;;;;;;4988651;28;20819;-54
2022/09/19 00:26:46;;;;;;;0.97;0.50;;;11.20;1.00;;;;;;4984834;28;20471;-54
2022/09/19 00:29:15;;;;;;;0.67;0.67;;;11.20;1.00;;;;;;4992690;28;20482;-53
2022/09/19 00:31:41;;;;;;;2.40;1.00;;;11.10;1.00;;;;;;4986756;28;20428;-56
2022/09/19 00:34:09;;;;;;;1.47;0.80;;;11.10;1.00;;;;;;4983082;28;20545;-55
2022/09/19 00:36:35;;;;;;;1.00;0.43;;;11.10;1.00;;;;;;4982126;28;20535;-53
2022/09/19 00:39:01;;;;;;;2.37;0.70;;;11.10;1.00;;;;;;4988247;28;21004;-54
2022/09/19 00:41:27;;;;;;;2.60;0.90;;;11.20;1.00;;;;;;5005553;28;20881;-53
2022/09/19 00:43:55;;;;;;;1.20;0.70;;;11.30;1.00;;;;;;4986224;28;20484;-53
2022/09/19 00:46:23;;;;;;;0.60;0.60;;;11.20;1.00;;;;;;4990510;28;20205;-55
2022/09/19 00:48:59;;;;;;;4.43;0.93;;;11.10;1.00;;;;;;4990316;28;20423;-54
2022/09/19 00:51:47;;;;;;;0.70;0.67;;;11.10;1.00;;;;;;4991096;28;20522;-54
2022/09/19 00:54:17;;;;;;;1.80;0.80;;;11.10;1.00;;;;;;4991926;28;20448;-53
2022/09/19 00:56:46;;;;;;;0.80;0.80;;;11.20;1.00;;;;;;4988968;28;20455;-53
2022/09/19 00:59:13;;;;;;;1.60;0.87;;;11.00;1.00;;;;;;4990294;28;20424;-55
2022/09/19 01:01:40;;;;;;;1.67;0.50;;;11.00;1.00;;;;;;4987330;28;20552;-54
2022/09/19 01:04:18;;;;;;;1.00;0.90;;;11.00;1.00;;;;;;4980476;28;20445;-54
2022/09/19 01:07:14;;;;;;;0.60;0.60;;;11.00;1.00;;;;;;4981104;28;20442;-51
2022/09/19 01:10:13;;;;;;;0.97;0.70;;;11.00;1.00;;;;;;4984109;28;20456;-54
2022/09/19 01:13:09;;;;;;;1.20;0.90;;;11.00;1.00;;;;;;4992158;28;20457;-54
2022/09/19 01:15:38;;;;;;;1.47;0.93;;;10.90;1.00;;;;;;4993975;28;20474;-55
2022/09/19 01:18:05;;;;;;;5.60;0.90;;;10.90;1.00;;;;;;4989453;28;20430;-55
2022/09/19 01:20:35;;;;;;;0.80;0.80;;;10.80;1.00;;;;;;4988114;28;20962;-53
2022/09/19 01:23:12;;;;;;;1.90;0.90;;;10.70;1.00;;;;;;4988602;28;20455;-53
2022/09/19 01:26:06;;;;;;;0.80;0.70;;;10.60;1.00;;;;;;4985983;28;20522;-55
2022/09/19 01:28:59;;;;;;;0.83;0.80;;;10.50;1.00;;;;;;4992458;28;20428;-53
2022/09/19 01:31:29;;;;;;;3.10;1.07;;;10.40;1.00;;;;;;4985907;28;20424;-55
2022/09/19 01:34:02;;;;;;;0.90;0.90;;;10.40;1.00;;;;;;4989525;28;20428;-54
2022/09/19 01:36:33;;;;;;;1.23;1.10;;;10.30;16.60;;;;;;4996174;28;20442;-54
2022/09/19 01:39:02;;;;;;;1.10;1.00;;;10.40;45.40;;;;;;5012303;28;20419;-54
2022/09/19 01:41:28;;;;;;;1.63;1.10;;;10.40;46.00;;;;;;4986773;28;20419;-54
2022/09/19 01:43:54;;;;;;;2.10;1.20;;;10.30;60.70;;;;;;4995129;28;20443;-54
2022/09/19 01:46:49;;;;;;;1.03;1.03;;;10.40;90.80;;;;;;4994263;28;20499;-54
2022/09/19 01:49:43;;;;;;;1.40;1.30;;;10.40;91.00;;;;;;4979335;28;20202;-53
2022/09/19 01:52:15;;;;;;;1.47;1.37;;;10.40;93.40;;;;;;4988227;28;20929;-54
2022/09/19 01:54:53;;;;;;;1.57;1.47;;;10.30;99.20;;;;;;4991984;28;20911;-54
2022/09/19 01:57:57;;;;;;;1.30;1.20;;;10.40;99.90;;;;;;4991623;28;20815;-55
2022/09/19 02:00:25;;;;;;;1.80;1.60;;;10.50;99.90;;;;;;4909632;29;20590;-52
2022/09/19 02:03:06;;;;;;;2.30;2.10;;;10.50;99.90;;;;;;4974981;28;20516;-54
2022/09/19 02:05:42;;;;;;;1.77;1.63;;;10.60;99.90;;;;;;4983662;28;20503;-52
2022/09/19 02:08:19;;;;;;;1.90;1.80;;;10.80;99.90;;;;;;4986706;28;20791;-54
2022/09/19 02:10:54;;;;;;;5.60;2.03;;;10.80;99.90;;;;;;4987930;28;20896;-54
2022/09/19 02:13:24;;;;;;;3.23;2.93;;;10.70;99.90;;;;;;4987158;28;20447;-54
2022/09/19 02:15:55;;;;;;;2.60;2.40;;;10.60;99.90;;;;;;4993667;28;20441;-54
2022/09/19 02:18:31;;;;;;;3.20;2.40;;;11.20;99.90;;;;;;4991152;28;20445;-54
2022/09/19 02:21:05;;;;;;;2.80;2.60;;;10.70;99.90;;;;;;4990315;28;20535;-53
2022/09/19 02:23:36;;;;;;;4.30;3.27;;;10.70;99.90;;;;;;4980191;28;20948;-53
2022/09/19 02:26:06;;;;;;;3.43;3.20;;;10.80;99.90;;;;;;4987941;28;20427;-55
2022/09/19 02:28:39;;;;;;;3.60;3.30;;;10.80;99.90;;;;;;4990418;28;20536;-54
2022/09/19 02:31:05;;;;;;;4.03;3.40;;;10.70;99.90;;;;;;4988838;28;20506;-55
2022/09/19 02:33:35;;;;;;;7.90;3.33;;;10.70;99.90;;;;;;4988927;28;20809;-54
2022/09/19 02:36:38;;;;;;;4.80;3.20;;;10.80;99.90;;;;;;4970998;28;20479;-52
2022/09/19 02:39:20;;;;;;;4.27;3.87;;;10.80;97.30;;;;;;4988636;28;20453;-53
2022/09/19 02:42:18;;;;;;;4.03;3.73;;;10.80;99.40;;;;;;4996842;28;20955;-54
2022/09/19 02:45:26;;;;;;;4.73;3.70;;;10.80;76.20;;;;;;4975564;28;20432;-53
2022/09/19 02:48:38;;;;;;;5.17;3.57;;;10.70;91.70;;;;;;4980418;28;20427;-53
2022/09/19 02:51:16;;;;;;;4.23;3.80;;;10.70;89.10;;;;;;4967563;28;20958;-54
2022/09/19 02:53:46;;;;;;;3.80;3.30;;;10.70;88.80;;;;;;4986853;28;20454;-54
2022/09/19 02:56:14;;;;;;;3.20;2.90;;;10.80;64.50;;;;;;4988278;28;20443;-54
2022/09/19 02:58:52;;;;;;;4.67;3.27;;;10.80;59.50;;;;;;5000708;28;20411;-54
2022/09/19 03:01:27;;;;;;;3.60;3.30;;;10.80;53.90;;;;;;4992386;28;20432;-54
2022/09/19 03:04:12;;;;;;;7.43;3.23;;;10.90;52.30;;;;;;4987147;28;20493;-55
2022/09/19 03:06:57;;;;;;;4.00;3.43;;;10.80;40.40;;;;;;4985679;28;20840;-53
2022/09/19 03:09:27;;;;;;;4.57;3.37;;;10.90;40.80;;;;;;4984396;28;20453;-54
2022/09/19 03:12:18;;;;;;;4.43;3.67;;;10.90;37.40;;;;;;4987218;28;20480;-54
2022/09/19 03:14:55;;;;;;;3.40;3.20;;;10.90;39.60;;;;;;4983236;28;20409;-54
2022/09/19 03:17:27;;;;;;;7.17;3.23;;;10.90;37.80;;;;;;4991800;28;20476;-53
2022/09/19 03:19:53;;;;;;;4.77;3.97;;;11.00;40.60;;;;;;4988838;28;20430;-54
2022/09/19 03:22:19;;;;;;;5.70;3.80;;;11.00;40.20;;;;;;4989425;28;20419;-53
2022/09/19 03:24:44;;;;;;;4.27;3.90;;;10.90;40.50;;;;;;4991930;28;20922;-53
2022/09/19 03:27:10;;;;;;;4.83;3.70;;;10.90;45.80;;;;;;4982475;28;20198;-53
2022/09/19 03:29:36;;;;;;;4.90;3.50;;;10.90;45.80;;;;;;4980334;28;20193;-54
2022/09/19 03:32:03;;;;;;;6.53;3.30;;;10.90;40.50;;;;;;4984256;28;20194;-53
2022/09/19 03:34:30;;;;;;;4.60;4.03;;;10.90;29.80;;;;;;4986982;28;20428;-52
2022/09/19 03:36:56;;;;;;;3.87;3.57;;;10.90;26.80;;;;;;4989847;28;21014;-54
2022/09/19 03:39:22;;;;;;;9.97;5.87;;;11.00;21.70;;;;;;4991394;28;20448;-53
2022/09/19 03:41:47;;;;;;;5.57;4.50;;;10.90;20.70;;;;;;4985569;28;20245;-53
2022/09/19 03:44:14;;;;;;;10.50;5.70;;;10.90;18.10;;;;;;4987972;28;20224;-54
2022/09/19 03:46:41;;;;;;;5.73;5.20;;;11.00;12.90;;;;;;4984473;28;20648;-53
2022/09/19 03:49:07;;;;;;;5.30;4.40;;;11.00;4.80;;;;;;4986927;28;20432;-54
2022/09/19 03:51:33;;;;;;;5.43;4.73;;;10.90;11.50;;;;;;4987240;28;20962;-54
2022/09/19 03:53:59;;;;;;;8.90;5.30;;;11.00;16.50;;;;;;4982366;28;20542;-53
2022/09/19 03:56:25;;;;;;;6.57;5.83;;;11.00;16.70;;;;;;4981489;28;20502;-52
2022/09/19 03:58:50;;;;;;;6.63;5.23;;;10.90;24.70;;;;;;4979835;28;20205;-53
2022/09/19 04:01:16;;;;;;;6.53;5.47;;;10.90;29.70;;;;;;4978026;28;20194;-52
2022/09/19 04:03:42;;;;;;;9.63;5.60;;;11.00;30.00;;;;;;4979723;28;20636;-53
2022/09/19 04:06:09;;;;;;;6.80;5.73;;;11.00;29.20;;;;;;4980212;28;20194;-54
2022/09/19 04:08:35;;;;;;;6.00;5.43;;;11.00;29.90;;;;;;4978782;28;20506;-54
2022/09/19 04:11:01;;;;;;;9.30;6.50;;;11.10;29.90;;;;;;4979057;28;20491;-53
2022/09/19 04:13:29;;;;;;;6.13;5.53;;;11.00;29.90;;;;;;4976751;28;20218;-54
2022/09/19 04:15:55;;;;;;;8.13;5.50;;;10.90;35.90;;;;;;4980060;28;20416;-54
2022/09/19 04:18:20;;;;;;;10.20;5.93;;;10.90;38.20;;;;;;4977335;28;20457;-54
2022/09/19 04:20:47;;;;;;;6.47;5.63;;;11.00;31.40;;;;;;4977906;28;20194;-54
2022/09/19 04:23:16;;;;;;;5.80;5.30;;;11.00;31.70;;;;;;4978668;28;20245;-52
2022/09/19 04:25:42;;;;;;;5.53;4.93;;;10.90;29.80;;;;;;4978625;28;20434;-54
2022/09/19 04:28:11;;;;;;;6.20;4.77;;;11.00;33.40;;;;;;4978309;28;20940;-54
2022/09/19 04:30:40;;;;;;;5.63;5.03;;;11.00;35.20;;;;;;4979247;28;20425;-55
2022/09/19 04:33:10;;;;;;;5.73;5.13;;;11.10;26.80;;;;;;4962047;28;20449;-54
2022/09/19 04:35:37;;;;;;;5.10;4.60;;;11.10;21.30;;;;;;4981261;28;20459;-54
2022/09/19 04:38:08;;;;;;;9.33;4.23;;;11.10;19.90;;;;;;4980568;28;20573;-53
2022/09/19 04:40:39;;;;;;;9.83;5.57;;;11.00;21.30;;;;;;4987398;28;20430;-54
2022/09/19 04:43:05;;;;;;;7.60;4.50;;;11.10;21.90;;;;;;4986205;28;20460;-54
2022/09/19 04:45:31;;;;;;;5.03;4.30;;;11.10;15.40;;;;;;4992826;28;20469;-53
2022/09/19 04:47:58;;;;;;;5.70;5.13;;;11.20;15.90;;;;;;4993833;28;20776;-54
2022/09/19 04:50:24;;;;;;;6.90;5.13;;;11.20;15.70;;;;;;4990295;28;20503;-55
2022/09/19 04:52:52;;;;;;;9.03;5.33;;;11.20;16.00;;;;;;4990986;28;20427;-53
2022/09/19 04:55:17;;;;;;;5.30;4.80;;;11.20;15.60;;;;;;4992007;28;20502;-53
2022/09/19 04:57:44;;;;;;;5.70;5.20;;;11.20;11.30;;;;;;4986890;28;20538;-54
2022/09/19 05:00:10;;;;;;;6.17;5.10;;;11.30;15.20;;;;;;4991682;28;20228;-52
2022/09/19 05:02:36;;;;;;;5.17;4.67;;;11.20;18.80;;;;;;4988166;28;20489;-53
2022/09/19 05:05:04;;;;;;;8.03;5.07;;;11.40;12.40;;;;;;4988543;28;20780;-55
2022/09/19 05:07:33;;;;;;;5.27;4.40;;;11.40;9.70;;;;;;5008429;28;20415;-56
2022/09/19 05:10:01;;;;;;;11.00;4.03;;;11.30;1.80;;;;;;4987939;28;20465;-54
2022/09/19 05:12:28;;;;;;;5.70;4.37;;;11.30;6.10;;;;;;4987495;28;20437;-54
2022/09/19 05:14:53;;;;;;;6.50;5.10;;;11.30;2.90;;;;;;4989432;28;20491;-54
2022/09/19 05:17:19;;;;;;;6.83;4.50;;;11.40;1.00;;;;;;4990959;28;20458;-54
2022/09/19 05:19:44;;;;;;;5.83;4.50;;;11.60;1.00;;;;;;4991958;28;20224;-55
2022/09/19 05:22:10;;;;;;;4.23;3.83;;;11.60;1.00;;;;;;4988172;28;20190;-54
2022/09/19 05:24:37;;;;;;;4.60;4.10;;;11.50;1.00;;;;;;4984088;28;20201;-55
2022/09/19 05:27:03;;;;;;;4.87;3.87;;;11.40;1.00;;;;;;4990221;28;20268;-54
2022/09/19 05:29:32;;;;;;;5.87;4.27;;;11.40;1.00;;;;;;4984983;28;20476;-55
2022/09/19 05:32:04;;;;;;;5.83;4.60;;;11.50;1.00;;;;;;4985284;28;20472;-54
2022/09/19 05:34:30;;;;;;;7.63;4.93;;;11.40;1.00;;;;;;5009354;28;20448;-54
2022/09/19 05:36:56;;;;;;;8.30;5.53;;;11.30;1.00;;;;;;4984811;28;20543;-54
2022/09/19 05:39:22;;;;;;;11.33;4.70;;;11.30;1.00;;;;;;4965978;28;20193;-55
2022/09/19 05:41:48;;;;;;;7.10;5.37;;;11.30;1.00;;;;;;4986491;28;20420;-56
2022/09/19 05:44:16;;;;;;;5.50;5.00;;;11.40;1.00;;;;;;4987395;28;20714;-54
2022/09/19 05:46:42;;;;;;;7.07;6.37;;;11.50;1.00;;;;;;4972277;28;20262;-54
2022/09/19 05:49:07;;;;;;;10.17;5.80;;;11.50;1.00;;;;;;4987712;28;20427;-54
2022/09/19 05:51:33;;;;;;;6.10;5.07;;;11.60;1.00;;;;;;4991784;28;20551;-54
2022/09/19 05:53:59;;;;;;;7.10;5.67;;;11.70;1.00;;;;;;4987754;28;20198;-55
2022/09/19 05:56:24;;;;;;;7.60;5.67;;;11.70;1.00;;;;;;4981698;28;20214;-54
2022/09/19 05:58:54;;;;;;;5.53;5.00;;;11.80;1.00;;;;;;4985673;28;20420;-54
2022/09/19 06:01:20;;;;;;;5.90;5.40;;;11.80;1.00;;;;;;4982787;28;20213;-54
2022/09/19 06:03:46;;;;;;;6.50;5.90;;;11.90;1.00;;;;;;4990556;28;20780;-55
2022/09/19 06:06:18;;;;;;;6.40;5.80;;;12.00;1.00;;;;;;4985725;28;20427;-54
2022/09/19 06:08:44;;;;;;;7.30;5.50;;;12.00;1.00;;;;;;4988585;28;20187;-54
2022/09/19 06:11:10;;;;;;;8.07;5.97;;;11.90;1.00;;;;;;4986160;28;20460;-55
2022/09/19 06:16:20;;;;;;;9.67;5.80;;;11.90;1.00;;;;;;4988053;28;20491;-54
2022/09/19 06:18:46;;;;;;;7.77;6.07;;;11.90;1.00;;;;;;4986413;28;20471;-54
2022/09/19 06:21:12;;;;;;;6.00;5.20;;;11.90;1.00;;;;;;4988151;28;20225;-54
2022/09/19 06:23:38;;;;;;;5.90;5.27;;;11.80;1.00;;;;;;4982812;28;20613;-55
2022/09/19 06:26:04;;;;;;;7.83;5.93;;;11.90;1.00;;;;;;4988369;28;20441;-54
2022/09/19 06:28:30;;;;;;;9.03;6.73;;;11.80;1.00;;;;;;4986608;28;20429;-54
2022/09/19 06:31:03;;;;;;;7.67;5.97;;;11.80;1.00;;;;;;4987136;28;20194;-55
2022/09/19 06:33:29;;;;;;;7.03;5.87;;;11.80;1.00;;;;;;4986520;28;20183;-54
2022/09/19 06:35:59;;;;;;;7.27;6.57;;;11.80;1.00;;;;;;4987638;28;20995;-54
2022/09/19 06:38:25;;;;;;;7.17;6.17;;;11.80;1.00;;;;;;4984424;28;20441;-54
2022/09/19 06:40:51;;;;;;;8.67;7.43;;;11.80;1.00;;;;;;4990447;28;20882;-54
2022/09/19 06:43:17;;;;;;;9.93;7.20;;;11.80;1.00;;;;;;4983480;28;20508;-55
2022/09/19 06:45:43;;;;;;;7.73;6.83;;;11.80;1.00;;;;;;4991780;28;20213;-54
2022/09/19 06:48:09;;;;;;;7.93;7.03;;;11.90;1.00;;;;;;4987150;28;21085;-52
2022/09/19 06:50:36;;;;;;;6.50;5.07;;;11.80;1.00;;;;;;4989013;28;20197;-53
2022/09/19 06:53:01;;;;;;;8.83;6.17;;;11.80;1.00;;;;;;4982189;28;20448;-54
2022/09/19 06:55:28;;;;;;;7.77;6.33;;;12.00;1.00;;;;;;4984444;28;21560;-54
2022/09/19 06:57:59;;;;;;;7.70;6.50;;;12.00;1.00;;;;;;4984721;28;20221;-55
2022/09/19 07:00:27;;;;;;;6.20;5.60;;;12.10;1.00;;;;;;4988973;28;20507;-56
2022/09/19 07:02:58;;;;;;;7.80;5.40;;;12.10;1.00;;;;;;4988650;28;20424;-55
2022/09/19 07:05:24;;;;;;;8.90;6.13;;;12.10;1.00;;;;;;4986209;28;20445;-53
2022/09/19 07:07:51;;;;;;;8.27;6.13;;;12.10;1.00;;;;;;4988244;28;20934;-52
2022/09/19 07:10:19;;;;;;;10.53;4.87;;;12.10;1.00;;;;;;4987236;28;20276;-55
2022/09/19 07:12:56;;;;;;;10.67;5.90;;;12.00;1.00;;;;;;4970767;28;20461;-54
2022/09/19 07:15:23;;;;;;;6.73;5.77;;;11.90;4.40;;;;;;4984337;28;20459;-54
2022/09/19 07:17:48;;;;;;;7.37;6.40;;;12.00;5.80;;;;;;4988181;28;20469;-56
2022/09/19 07:20:14;;;;;;;7.30;6.10;;;12.10;2.30;;;;;;4987920;28;20490;-54
2022/09/19 07:22:40;;;;;;;7.03;6.33;;;12.10;1.00;;;;;;4988270;28;20237;-54
2022/09/19 07:25:07;;;;;;;7.43;5.97;;;12.00;1.00;;;;;;4988064;28;20194;-54
2022/09/19 07:27:36;;;;;;;6.53;5.63;;;12.00;1.00;;;;;;4988931;28;20691;-55
2022/09/19 07:30:04;;;;;;;5.33;4.83;;;11.80;1.00;;;;;;4989030;28;20995;-55
2022/09/19 07:32:29;;;;;;;8.47;5.27;;;11.90;2.80;;;;;;4991076;28;20428;-55
2022/09/19 07:34:55;;;;;;;6.10;5.47;;;11.90;3.30;;;;;;4989835;28;20471;-53
2022/09/19 07:37:21;;;;;;;5.67;5.27;;;12.00;1.00;;;;;;4990645;28;20297;-54
2022/09/19 07:39:46;;;;;;;6.10;5.20;;;12.00;1.00;;;;;;4992556;28;20778;-55
2022/09/19 07:42:14;;;;;;;5.40;4.90;;;12.00;1.00;;;;;;4989646;28;20190;-55
2022/09/19 07:44:40;;;;;;;6.40;5.87;;;12.10;1.00;;;;;;5001047;28;20217;-55
2022/09/19 07:49:50;;;;;;;4.90;4.43;;;12.20;1.00;;;;;;4990520;28;20256;-55
2022/09/19 07:52:16;;;;;;;8.67;5.70;;;12.20;1.00;;;;;;4983295;28;20424;-54
2022/09/19 07:54:41;;;;;;;5.77;5.27;;;12.40;1.00;;;;;;4990124;28;20190;-55
2022/09/19 07:57:07;;;;;;;6.77;5.03;;;12.40;1.00;;;;;;4989091;28;20852;-55
2022/09/19 07:59:33;;;;;;;4.97;4.53;;;12.40;1.00;;;;;;4988526;28;20186;-54
2022/09/19 08:01:59;;;;;;;4.67;4.37;;;12.50;1.00;;;;;;4989329;28;20240;-57
2022/09/19 08:04:24;;;;;;;5.37;4.20;;;12.50;1.00;;;;;;4988583;28;20201;-55
2022/09/19 08:06:50;;;;;;;4.70;4.37;;;12.50;1.00;;;;;;4988159;28;20488;-55
2022/09/19 08:09:15;;;;;;;4.47;4.17;;;12.60;1.00;;;;;;4986157;28;20198;-54
2022/09/19 08:11:41;;;;;;;6.00;3.90;;;12.50;1.00;;;;;;4992704;28;20190;-54
2022/09/19 08:14:06;;;;;;;4.90;4.40;;;12.50;1.00;;;;;;4993130;28;20205;-55
2022/09/19 08:16:32;;;;;;;6.70;4.10;;;15.40;1.00;;;;;;4992650;28;20249;-55
2022/09/19 08:18:58;;;;;;;3.63;3.23;;;12.40;1.00;;;;;;4991250;28;20284;-55
2022/09/19 08:21:24;;;;;;;2.90;2.70;;;12.30;1.00;;;;;;4986913;28;20201;-55
2022/09/19 08:23:50;;;;;;;2.63;2.43;;;12.40;1.00;;;;;;4996680;28;20437;-55
2022/09/19 08:26:16;;;;;;;6.60;2.63;;;12.30;1.00;;;;;;4989556;28;20468;-56
2022/09/19 08:28:42;;;;;;;2.30;2.10;;;12.30;1.00;;;;;;4996100;28;20240;-55
2022/09/19 08:31:09;;;;;;;2.43;2.03;;;12.40;1.00;;;;;;4989889;28;20845;-53
2022/09/19 08:33:35;;;;;;;3.00;2.00;;;12.50;1.00;;;;;;4992159;28;20198;-55
2022/09/19 08:36:01;;;;;;;1.97;1.87;;;12.50;1.00;;;;;;4991393;28;20456;-54
2022/09/19 08:38:27;;;;;;;1.73;1.63;;;12.60;1.00;;;;;;4996166;28;20225;-53
2022/09/19 08:41:25;;;;;;;6.20;4.23;;;12.70;1.00;;;;;;4993996;28;20174;-54
2022/09/19 08:44:17;;;;;;;2.00;1.70;;;12.70;1.00;;;;;;4990110;28;20476;-55
2022/09/19 08:46:55;;;;;;;1.80;1.70;;;12.60;1.00;;;;;;4992688;28;20427;-54
2022/09/19 08:49:51;;;;;;;4.07;1.93;;;12.60;1.00;;;;;;4988620;28;20865;-54
2022/09/19 08:52:45;;;;;;;2.00;1.90;;;12.70;1.00;;;;;;4985328;28;20475;-54
2022/09/19 08:55:25;;;;;;;3.10;2.10;;;12.70;1.00;;;;;;4991198;28;20486;-55
2022/09/19 08:57:55;;;;;;;2.37;2.17;;;12.60;1.00;;;;;;4991606;28;20469;-56
2022/09/19 09:00:23;;;;;;;2.10;1.90;;;12.60;1.00;;;;;;4989892;28;21003;-54
2022/09/19 09:02:51;;;;;;;2.60;2.40;;;12.60;1.00;;;;;;4993022;28;20487;-55
2022/09/19 09:05:44;;;;;;;3.57;2.37;;;12.60;1.00;;;;;;4991517;28;20478;-53
2022/09/19 09:08:18;;;;;;;3.43;3.23;;;12.80;1.00;;;;;;4989595;28;20449;-57
2022/09/19 09:10:55;;;;;;;3.50;3.20;;;12.80;1.00;;;;;;4992179;28;20439;-54
2022/09/19 09:13:41;;;;;;;2.90;2.70;;;12.70;1.00;;;;;;4991849;28;20427;-54
2022/09/19 09:16:10;;;;;;;4.10;3.80;;;12.80;1.00;;;;;;4933546;28;20453;-53
2022/09/19 09:18:56;;;;;;;3.53;3.23;;;13.00;1.00;;;;;;4984216;28;20451;-54
2022/09/19 09:21:40;;;;;;;4.60;4.20;;;13.00;1.00;;;;;;4985714;28;20452;-53
2022/09/19 09:24:24;;;;;;;4.80;4.40;;;13.10;1.00;;;;;;4986260;28;20427;-53
2022/09/19 09:26:54;;;;;;;5.07;4.67;;;13.00;1.00;;;;;;4991530;28;20942;-54
2022/09/19 09:29:27;;;;;;;4.80;4.40;;;12.90;1.00;;;;;;4991040;28;20532;-53
2022/09/19 09:32:00;;;;;;;5.90;5.30;;;12.90;1.00;;;;;;4992189;28;20549;-55
2022/09/19 09:34:34;;;;;;;6.13;4.80;;;12.90;1.00;;;;;;4990871;28;20426;-53
2022/09/19 09:37:12;;;;;;;6.10;5.47;;;12.80;1.00;;;;;;4991889;28;20469;-54
2022/09/19 09:40:01;;;;;;;6.47;5.87;;;12.80;1.00;;;;;;4991589;28;20954;-56
2022/09/19 09:42:50;;;;;;;7.63;6.57;;;12.80;1.00;;;;;;4989817;28;20824;-54
2022/09/19 09:45:36;;;;;;;6.90;5.83;;;12.70;1.00;;;;;;4992150;28;20416;-54
2022/09/19 09:48:08;;;;;;;7.80;7.10;;;12.60;1.00;;;;;;4990827;28;20478;-55
2022/09/19 09:51:16;;;;;;;7.50;6.80;;;12.60;1.00;;;;;;4996106;28;20441;-54
2022/09/19 09:54:03;;;;;;;7.87;7.07;;;12.60;1.00;;;;;;5002280;28;20441;-54
2022/09/19 09:56:40;;;;;;;8.03;7.33;;;12.70;1.00;;;;;;4991192;28;20458;-55
2022/09/19 10:03:34;;;;;;;7.70;7.00;;;12.70;1.00;;;;;;4991580;28;20758;-53
2022/09/19 10:05:06;;;;;;;8.03;7.23;;;13.00;1.00;;;;;;4992096;28;21045;-55
2022/09/19 10:07:40;;;;;;;7.03;6.33;;;13.20;1.00;;;;;;5005693;28;20431;-55
2022/09/19 10:10:13;;;;;;;7.03;6.40;;;13.20;1.00;;;;;;5009382;28;20500;-54
2022/09/19 10:12:45;;;;;;;7.23;6.60;;;13.30;1.00;;;;;;4987612;28;20548;-55
2022/09/19 10:15:21;;;;;;;6.17;5.60;;;13.30;1.00;;;;;;4986210;28;20448;-55
2022/09/19 10:17:53;;;;;;;8.10;6.27;;;13.50;1.00;;;;;;4987480;28;20724;-55
2022/09/19 10:20:29;;;;;;;7.50;6.67;;;13.60;1.00;;;;;;4991303;28;20456;-54
2022/09/19 10:22:54;;;;;;;5.70;5.20;;;13.60;1.00;;;;;;4998902;28;20514;-54
2022/09/19 10:25:21;;;;;;;5.70;5.10;;;13.60;1.00;;;;;;4990892;28;20578;-57
2022/09/19 10:27:49;;;;;;;5.40;4.90;;;13.40;1.00;;;;;;4990816;28;20190;-54
2022/09/19 10:30:27;;;;;;;6.50;5.70;;;13.40;1.00;;;;;;4985111;28;20639;-55
2022/09/19 10:32:54;;;;;;;5.27;4.80;;;13.30;1.00;;;;;;4991542;28;20958;-54
2022/09/19 10:35:27;;;;;;;5.20;4.50;;;12.80;1.00;;;;;;4988704;28;20514;-55
2022/09/19 10:38:09;;;;;;;5.03;4.63;;;13.30;1.00;;;;;;4989853;28;20465;-55
2022/09/19 10:40:34;;;;;;;6.10;5.60;;;13.50;1.00;;;;;;4988620;28;20452;-55
2022/09/19 10:43:04;;;;;;;8.20;5.70;;;13.60;1.00;;;;;;4991892;28;20469;-55
2022/09/19 10:45:33;;;;;;;6.83;6.20;;;13.40;1.00;;;;;;4986667;28;20687;-54
2022/09/19 10:48:11;;;;;;;7.27;6.60;;;13.30;1.00;;;;;;4989479;28;20457;-54
2022/09/19 10:50:46;;;;;;;6.23;5.63;;;13.20;1.00;;;;;;4986677;28;20798;-56
2022/09/19 10:53:27;;;;;;;7.20;6.50;;;13.40;1.00;;;;;;4989704;28;20450;-55
2022/09/19 10:55:55;;;;;;;6.37;5.77;;;13.40;1.00;;;;;;4986399;28;20968;-55
2022/09/19 10:58:26;;;;;;;9.83;6.53;;;13.50;1.00;;;;;;4972372;28;20534;-56
2022/09/19 11:01:01;;;;;;;6.27;5.60;;;13.40;1.00;;;;;;4987423;28;20424;-55
2022/09/19 11:03:39;;;;;;;8.10;6.43;;;13.40;1.00;;;;;;4990554;28;20458;-55
2022/09/19 11:06:08;;;;;;;7.73;7.03;;;13.50;1.00;;;;;;4989514;28;20431;-55
2022/09/19 11:08:44;;;;;;;7.23;6.50;;;13.50;1.00;;;;;;4990366;28;20847;-55
2022/09/19 11:11:46;;;;;;;6.77;6.17;;;13.50;1.00;;;;;;4993197;28;20431;-54
2022/09/19 11:14:32;;;;;;;7.60;6.97;;;13.50;1.00;;;;;;4990042;28;20454;-54
2022/09/19 11:17:06;;;;;;;7.27;6.30;;;13.70;1.00;;;;;;4989786;28;20473;-54
2022/09/19 11:19:49;;;;;;;6.30;5.73;;;14.00;1.00;;;;;;4990066;28;20447;-54
2022/09/19 11:22:45;;;;;;;6.07;5.47;;;14.10;1.00;;;;;;4990912;28;20938;-54
2022/09/19 11:25:22;;;;;;;6.10;5.60;;;14.30;1.00;;;;;;4989488;28;21113;-54
2022/09/19 11:27:57;;;;;;;6.40;5.63;;;14.40;1.00;;;;;;4986518;28;20449;-55
2022/09/19 11:30:28;;;;;;;6.63;5.90;;;14.40;1.00;;;;;;4989269;28;20419;-54
2022/09/19 11:33:34;;;;;;;8.73;5.17;;;14.20;1.00;;;;;;4990521;28;20788;-53
2022/09/19 11:36:25;;;;;;;6.83;4.70;;;14.30;1.00;;;;;;4989486;28;20445;-54
2022/09/19 11:39:03;;;;;;;5.80;5.27;;;14.30;1.00;;;;;;4991063;28;20460;-55
2022/09/19 11:42:03;;;;;;;4.80;4.40;;;14.40;1.00;;;;;;4986621;28;20439;-54
2022/09/19 11:44:52;;;;;;;4.60;4.23;;;14.30;1.00;;;;;;4984580;28;20443;-55
2022/09/19 11:47:44;;;;;;;4.17;3.87;;;14.60;1.00;;;;;;4986591;28;20441;-55
2022/09/19 11:50:31;;;;;;;5.00;3.80;;;14.90;1.00;;;;;;4988987;28;20897;-55
2022/09/19 11:53:32;;;;;;;4.40;4.10;;;15.00;1.00;;;;;;4971700;28;20453;-55
2022/09/19 11:56:26;;;;;;;3.40;3.10;;;14.90;1.00;;;;;;4987559;28;20448;-56
2022/09/19 11:59:24;;;;;;;4.00;3.70;;;15.10;1.00;;;;;;4987627;28;20456;-55
2022/09/19 12:02:20;;;;;;;2.90;2.70;;;15.20;1.00;;;;;;4990699;28;20958;-58
2022/09/19 12:05:11;;;;;;;3.77;3.03;;;15.30;1.00;;;;;;4987846;28;20820;-54
2022/09/19 12:07:54;;;;;;;3.90;3.50;;;15.30;1.00;;;;;;4988883;28;20789;-55
2022/09/19 12:10:32;;;;;;;2.87;2.63;;;15.40;1.00;;;;;;4988989;28;20453;-54
2022/09/19 12:13:19;;;;;;;3.60;2.80;;;15.40;1.00;;;;;;4988045;28;20969;-55
2022/09/19 12:15:50;;;;;;;3.03;2.40;;;15.70;1.00;;;;;;4987971;28;20534;-55
2022/09/19 12:18:22;;;;;;;2.50;2.40;;;15.80;1.00;;;;;;4990186;28;20982;-54
2022/09/19 12:20:53;;;;;;;3.13;2.80;;;15.90;1.00;;;;;;4988429;28;20428;-56
2022/09/19 12:26:21;;;;;;;3.20;2.53;;;15.60;1.00;;;;;;4988119;28;20442;-55
2022/09/19 12:29:01;;;;;;;2.40;2.20;;;15.70;1.00;;;;;;4988279;28;20479;-56
2022/09/19 12:31:34;;;;;;;2.10;2.00;;;15.60;1.00;;;;;;4987533;28;20455;-56
2022/09/19 12:34:11;;;;;;;2.23;2.03;;;15.90;1.00;;;;;;4988537;28;20480;-54
2022/09/19 12:36:52;;;;;;;2.37;2.13;;;16.00;1.00;;;;;;4986867;28;20464;-55
2022/09/19 12:39:47;;;;;;;2.73;2.00;;;16.30;1.00;;;;;;4991645;28;20460;-54
2022/09/19 12:42:28;;;;;;;1.80;1.70;;;16.60;1.00;;;;;;4993673;28;20525;-56
2022/09/19 12:45:36;;;;;;;1.97;1.70;;;16.60;1.00;;;;;;4984188;28;20507;-55
2022/09/19 12:48:24;;;;;;;2.30;2.00;;;16.50;1.00;;;;;;4891276;29;20840;-55
2022/09/19 12:50:52;;;;;;;2.43;1.90;;;16.40;1.00;;;;;;4980145;28;20461;-53
2022/09/19 12:53:21;;;;;;;5.73;1.90;;;16.30;1.00;;;;;;4988228;28;20453;-54
2022/09/19 12:56:10;;;;;;;2.20;2.00;;;16.40;1.00;;;;;;4993066;28;20432;-55
2022/09/19 12:58:53;;;;;;;2.00;1.90;;;16.40;1.00;;;;;;4990648;28;20959;-56
2022/09/19 13:01:33;;;;;;;1.60;1.50;;;16.10;1.00;;;;;;4986292;28;20485;-56
2022/09/19 13:04:40;;;;;;;1.60;1.50;;;15.90;1.00;;;;;;4988071;28;21002;-56
2022/09/19 13:07:30;;;;;;;2.30;1.60;;;15.60;1.00;;;;;;4892533;29;20453;-53
2022/09/19 13:10:06;;;;;;;2.70;1.60;;;15.50;1.00;;;;;;4992739;28;20411;-54
2022/09/19 13:12:59;;;;;;;1.53;1.43;;;15.40;1.00;;;;;;4997082;28;20427;-56
2022/09/19 13:15:48;;;;;;;1.70;1.60;;;15.40;1.00;;;;;;4992319;28;20846;-54
2022/09/19 13:23:30;;;;;;;1.93;1.80;;;15.70;1.00;;;;;;4991631;28;21113;-56
2022/09/19 13:24:05;;;;;;;1.70;1.60;;;16.30;1.00;;;;;;4990268;28;20956;-56
2022/09/19 13:26:35;;;;;;;1.60;1.50;;;16.60;1.00;;;;;;4989866;28;20435;-55
2022/09/19 13:29:28;;;;;;;2.40;1.53;;;16.70;1.00;;;;;;5001925;28;20465;-57
2022/09/19 13:31:58;;;;;;;1.90;1.67;;;16.70;1.00;;;;;;4992427;28;20445;-55
2022/09/19 13:34:39;;;;;;;1.97;1.30;;;16.80;1.00;;;;;;4993845;28;20540;-55
2022/09/19 13:37:26;;;;;;;2.33;1.33;;;17.00;1.00;;;;;;4997598;28;20479;-53
2022/09/19 13:40:29;;;;;;;1.67;1.53;;;16.60;1.00;;;;;;4992164;28;20896;-52
2022/09/19 13:43:10;;;;;;;1.53;1.30;;;16.60;1.00;;;;;;4988827;28;20496;-54
2022/09/19 13:45:59;;;;;;;1.40;1.30;;;16.40;1.00;;;;;;4983547;28;20555;-55
2022/09/19 13:48:49;;;;;;;1.83;1.70;;;16.50;1.00;;;;;;4990846;28;20573;-55